Winter Haven, FL

9:56 AM EDT on April 26, 2015 (GMT -0400)
Sheffield Road | | Change Station
CLOSE
Current Station
Personal Weather Station
Location: Winter Haven, FL
Elevation: 138 ft
Nearby Weather Stations

Elev 138 ft 27.97 °N, 81.79 °W | Updated 10 minutes ago

Mostly Cloudy
Mostly Cloudy
82.7 °F
Feels Like 92 °F
N
6.0
Wind Variable Wind from West
Gusts 12.0 mph

Today
High -- | Low -- °F
--% Chance of Precip.
Yesterday
High -- | Low -- °F
Precip. -- in
6:51 AM 7:58 PM
First Quarter, 56% visible
Pressure 29.82 in
Visibility 7.0 miles
Clouds Mostly Cloudy 1000 ft
Heat Index 92 °F
Dew Point 77 °F
Humidity 84%
Rainfall 0.00 in
Snow Depth Not available.
UV 1 out of 12
Pollen 9.50 out of 12
Air Quality Not available.
Flu Activity Local Activity
METAR KBOW 261247Z 23007KT 7SM BKN010 25/25 A2982

More Conditions Fewer Conditions

Pressure 29.82 in
Visibility 7.0 miles
Clouds Mostly Cloudy 1000 ft
Heat Index 92 °F
Dew Point 77 °F
Humidity 84%
Rainfall 0.00 in
Snow Depth Not available.
UV 1 out of 12
Pollen 9.50 out of 12
Air Quality Not available.
Flu Activity Local Activity
METAR KBOW 261247Z 23007KT 7SM BKN010 25/25 A2982

More Conditions Fewer Conditions

The full scope of the disaster following a powerful 7.8-magnitude earthquake in Nepal may not come into view for days, but global charities are already sending emergency aid. Click to see how you can help.

10-Day Weather Forecast

Almanac

Astronomy

Apr. 26, 2015 Rise Set
Actual Time
Civil Twilight
Nautical Twilight
Astronomical Twilight
Moon
Length of Visible Light
Length of Day
Tomorrow will be .
, % of the Moon is Illuminated

Today's Extremes

State Highs State Lows

Community

WunderPhotos

Upload Photos

1,816,998 photos uploaded!

WunderBlogs® & News

Nearby

Air Quality

  Air Quality AQ Index Pollutant
Not available.

Snow Depth

Station Depth Elevation

Earthquake Activity

City Distance Mag. Time & Date
Minimum magnitude displayed is 2.5.

Coastal Water Temperatures

Place Temperature

Stations

Nearby Weather Stations

Station Location Temp. Windchill Dew Point Humidity Wind Precip. Elev Updated Type